createdAt,value
2023-04-14T00:01:28.310Z,100.00
2023-04-14T00:03:57.550Z,100.00
2023-04-14T00:06:27.440Z,100.00
2023-04-14T00:08:56.219Z,100.00
2023-04-14T00:11:24.375Z,100.00
2023-04-14T00:13:52.576Z,100.00
2023-04-14T00:16:22.012Z,100.00
2023-04-14T00:18:50.977Z,100.00
2023-04-14T00:21:19.192Z,100.00
2023-04-14T00:23:47.702Z,100.00
2023-04-14T00:26:16.013Z,100.00
2023-04-14T00:28:44.988Z,100.00
2023-04-14T00:31:13.594Z,100.00
2023-04-14T00:33:41.798Z,100.00
2023-04-14T00:36:09.952Z,100.00
2023-04-14T00:38:40.183Z,100.00
2023-04-14T00:41:08.782Z,100.00
2023-04-14T00:43:37.909Z,100.00
2023-04-14T00:46:07.253Z,100.00
2023-04-14T00:48:36.147Z,100.00
2023-04-14T00:51:05.507Z,100.00
2023-04-14T00:53:35.365Z,100.00
2023-04-14T00:56:03.860Z,100.00
2023-04-14T00:58:32.039Z,100.00
2023-04-14T01:01:00.419Z,100.00
2023-04-14T01:03:32.180Z,100.00
2023-04-14T01:06:00.890Z,100.00
2023-04-14T01:08:29.214Z,100.00
2023-04-14T01:11:08.328Z,100.00
2023-04-14T01:13:59.135Z,100.00
2023-04-14T01:16:32.354Z,100.00
2023-04-14T01:19:20.794Z,100.00
2023-04-14T01:21:51.435Z,100.00
2023-04-14T01:24:32.646Z,100.00
2023-04-14T01:27:11.393Z,100.00
2023-04-14T01:29:42.907Z,100.00
2023-04-14T01:32:11.973Z,100.00
2023-04-14T01:34:49.543Z,100.00
2023-04-14T01:37:34.158Z,100.00
2023-04-14T01:40:06.078Z,100.00
2023-04-14T01:42:36.357Z,100.00
2023-04-14T01:45:12.338Z,100.00
2023-04-14T01:47:42.236Z,100.00
2023-04-14T01:50:11.480Z,100.00
2023-04-14T01:52:43.245Z,100.00
2023-04-14T01:55:11.705Z,100.00
2023-04-14T01:57:42.417Z,100.00
2023-04-14T02:00:11.392Z,99.93
2023-04-14T02:02:44.714Z,100.00
2023-04-14T02:05:14.283Z,100.00
2023-04-14T02:07:46.940Z,100.00
2023-04-14T02:10:16.244Z,99.95
2023-04-14T02:12:53.901Z,99.02
2023-04-14T02:15:41.988Z,98.46
2023-04-14T02:18:10.522Z,98.44
2023-04-14T02:20:43.485Z,97.98
2023-04-14T02:23:28.453Z,98.15
2023-04-14T02:26:01.068Z,97.48
2023-04-14T02:28:34.191Z,97.64
2023-04-14T02:31:05.780Z,97.50
2023-04-14T02:33:35.522Z,97.28
2023-04-14T02:36:06.786Z,97.07
2023-04-14T02:38:38.886Z,97.00
2023-04-14T02:41:14.774Z,96.91
2023-04-14T02:43:47.625Z,96.92
2023-04-14T02:46:17.086Z,96.69
2023-04-14T02:48:46.438Z,97.07
2023-04-14T02:51:15.589Z,96.76
2023-04-14T02:53:44.332Z,96.73
2023-04-14T02:56:18.438Z,97.54
2023-04-14T02:58:47.021Z,98.44
2023-04-14T03:01:16.106Z,98.54
2023-04-14T03:03:47.066Z,98.23
2023-04-14T03:06:15.936Z,98.59
2023-04-14T03:08:44.415Z,98.28
2023-04-14T03:11:14.748Z,97.80
2023-04-14T03:13:45.136Z,97.27
2023-04-14T03:16:14.173Z,97.04
2023-04-14T03:18:42.598Z,97.16
2023-04-14T03:21:11.612Z,97.15
2023-04-14T03:23:40.141Z,96.89
2023-04-14T03:26:11.855Z,96.70
2023-04-14T03:28:42.855Z,96.39
2023-04-14T03:31:11.675Z,96.57
2023-04-14T03:33:46.978Z,96.73
2023-04-14T03:36:16.470Z,96.30
2023-04-14T03:38:44.673Z,95.96
2023-04-14T03:41:13.794Z,96.16
2023-04-14T03:43:42.136Z,95.91
2023-04-14T03:46:15.081Z,95.64
2023-04-14T03:48:44.484Z,97.09
2023-04-14T03:51:14.603Z,98.07
2023-04-14T03:53:44.096Z,97.80
2023-04-14T03:56:13.812Z,98.02
2023-04-14T03:58:48.142Z,98.66
2023-04-14T04:01:19.639Z,98.90
2023-04-14T04:03:49.620Z,98.64
2023-04-14T04:06:20.693Z,98.88
2023-04-14T04:08:49.154Z,99.09
2023-04-14T04:11:19.126Z,98.81
2023-04-14T04:13:48.907Z,99.00
2023-04-14T04:16:19.605Z,99.03
2023-04-14T04:18:49.179Z,98.99
2023-04-14T04:21:20.632Z,98.45
2023-04-14T04:23:52.545Z,98.10
2023-04-14T04:26:21.180Z,98.51
2023-04-14T04:28:58.455Z,98.19
2023-04-14T04:31:28.305Z,97.75
2023-04-14T04:33:58.362Z,96.19
2023-04-14T04:36:29.419Z,95.65
2023-04-14T04:38:58.915Z,96.58
2023-04-14T04:41:29.090Z,96.45
2023-04-14T04:43:59.725Z,95.39
2023-04-14T04:46:53.905Z,94.89
2023-04-14T04:49:26.835Z,95.02
2023-04-14T04:51:57.110Z,95.50
2023-04-14T04:54:27.350Z,95.56
2023-04-14T04:56:56.727Z,94.87
2023-04-14T04:59:26.156Z,94.46
2023-04-14T05:01:54.667Z,94.38
2023-04-14T05:04:24.125Z,94.71
2023-04-14T05:06:52.956Z,95.11
2023-04-14T05:09:27.827Z,94.68
2023-04-14T05:11:58.156Z,95.63
2023-04-14T05:14:27.497Z,96.48
2023-04-14T05:16:57.111Z,96.14
2023-04-14T05:19:25.757Z,96.82
2023-04-14T05:21:55.881Z,96.01
2023-04-14T05:24:24.058Z,94.98
2023-04-14T05:27:12.289Z,94.67
2023-04-14T05:29:42.351Z,93.68
2023-04-14T05:32:13.025Z,93.84
2023-04-14T05:34:42.058Z,93.24
2023-04-14T05:37:12.814Z,93.22
2023-04-14T05:39:41.346Z,91.27
2023-04-14T05:42:09.532Z,91.96
2023-04-14T05:44:39.150Z,93.72
2023-04-14T05:47:07.900Z,93.54
2023-04-14T05:49:36.975Z,93.64
2023-04-14T05:52:08.927Z,92.96
2023-04-14T05:54:42.575Z,91.84
2023-04-14T05:57:11.864Z,91.37
2023-04-14T05:59:40.397Z,89.66
2023-04-14T06:02:08.904Z,88.20
2023-04-14T06:04:38.155Z,87.44
2023-04-14T06:07:07.863Z,86.30
2023-04-14T06:09:42.972Z,85.45
2023-04-14T06:12:13.003Z,84.42
2023-04-14T06:14:46.521Z,83.42
2023-04-14T06:17:28.729Z,83.04
2023-04-14T06:19:57.437Z,82.49
2023-04-14T06:22:29.649Z,81.29
2023-04-14T06:24:58.530Z,80.59
2023-04-14T06:27:35.867Z,79.31
2023-04-14T06:30:09.599Z,77.95
2023-04-14T06:32:42.040Z,77.59
2023-04-14T06:35:29.718Z,77.47
2023-04-14T06:38:02.243Z,77.36
2023-04-14T06:40:31.578Z,77.03
2023-04-14T06:43:00.880Z,75.98
2023-04-14T06:45:30.158Z,75.46
2023-04-14T06:47:59.246Z,74.98
2023-04-14T06:50:36.519Z,73.70
2023-04-14T06:53:07.631Z,73.10
2023-04-14T06:55:45.896Z,72.76
2023-04-14T06:59:06.377Z,71.86
2023-04-14T07:01:55.572Z,70.82
2023-04-14T07:04:45.878Z,69.95
2023-04-14T07:07:24.736Z,69.21
2023-04-14T07:10:01.138Z,68.87
2023-04-14T07:12:32.554Z,67.61
2023-04-14T07:15:03.915Z,67.30
2023-04-14T07:17:36.789Z,67.82
2023-04-14T07:20:11.768Z,67.76
2023-04-14T07:22:41.071Z,67.49
2023-04-14T07:25:12.826Z,67.61
2023-04-14T07:27:49.770Z,66.34
2023-04-14T07:30:35.203Z,66.27
2023-04-14T07:33:06.185Z,66.79
2023-04-14T07:35:36.812Z,67.34
2023-04-14T07:38:06.082Z,67.29
2023-04-14T07:40:36.799Z,67.43
2023-04-14T07:43:21.497Z,68.49
2023-04-14T07:45:53.608Z,68.50
2023-04-14T07:48:26.906Z,67.85
2023-04-14T07:50:58.482Z,68.75
2023-04-14T07:53:27.420Z,69.70
2023-04-14T07:55:55.858Z,70.76
2023-04-14T07:58:29.320Z,69.58
2023-04-14T08:00:59.160Z,69.35
2023-04-14T08:03:28.077Z,69.49
2023-04-14T08:05:57.647Z,69.09
2023-04-14T08:08:31.104Z,69.23
2023-04-14T08:11:00.531Z,69.07
2023-04-14T08:13:29.209Z,69.79
2023-04-14T08:15:57.641Z,70.30
2023-04-14T08:18:36.296Z,70.62
2023-04-14T08:21:05.049Z,70.27
2023-04-14T08:23:40.989Z,68.74
2023-04-14T08:26:14.112Z,69.46
2023-04-14T08:28:43.431Z,69.11
2023-04-14T08:31:16.672Z,67.82
2023-04-14T08:33:47.788Z,66.83
2023-04-14T08:36:16.432Z,66.55
2023-04-14T08:38:47.400Z,66.27
2023-04-14T08:41:22.726Z,65.27
2023-04-14T08:43:51.174Z,64.91
2023-04-14T08:46:27.629Z,64.75
2023-04-14T08:49:34.558Z,64.77
2023-04-14T08:52:06.943Z,66.12
2023-04-14T08:54:37.505Z,66.16
2023-04-14T08:57:06.706Z,65.11
2023-04-14T08:59:43.854Z,64.70
2023-04-14T09:02:21.297Z,64.66
2023-04-14T09:04:51.178Z,64.05
2023-04-14T09:07:21.969Z,63.71
2023-04-14T09:09:54.241Z,64.74
2023-04-14T09:12:22.718Z,65.24
2023-04-14T09:14:52.333Z,65.66
2023-04-14T09:17:22.072Z,66.75
2023-04-14T09:20:35.431Z,67.03
2023-04-14T09:22:41.420Z,67.61
2023-04-14T09:25:10.441Z,68.58
2023-04-14T09:27:39.781Z,68.08
2023-04-14T09:30:08.872Z,68.22
2023-04-14T09:32:38.889Z,67.94
2023-04-14T09:35:10.022Z,67.13
2023-04-14T09:37:45.377Z,66.69
2023-04-14T09:40:31.045Z,66.38
2023-04-14T09:43:01.443Z,65.88
2023-04-14T09:45:43.170Z,65.41
2023-04-14T09:48:21.944Z,64.94
2023-04-14T09:51:09.710Z,65.21
2023-04-14T09:53:41.392Z,64.40
2023-04-14T09:56:16.536Z,63.10
2023-04-14T09:58:47.815Z,62.76
2023-04-14T10:01:21.133Z,63.19
2023-04-14T10:04:17.383Z,63.07
2023-04-14T10:06:50.451Z,63.34
2023-04-14T10:09:24.745Z,64.16
2023-04-14T10:12:19.608Z,64.95
2023-04-14T10:14:51.788Z,66.20
2023-04-14T10:17:20.912Z,66.37
2023-04-14T10:19:50.032Z,65.51
2023-04-14T10:22:24.615Z,64.79
2023-04-14T10:24:54.674Z,65.09
2023-04-14T10:27:34.839Z,64.74
2023-04-14T10:30:12.435Z,64.54
2023-04-14T10:32:44.376Z,64.73
2023-04-14T10:35:21.210Z,65.17
2023-04-14T10:37:51.648Z,65.01
2023-04-14T10:40:21.585Z,64.12
2023-04-14T10:42:51.362Z,63.47
2023-04-14T10:45:19.881Z,63.15
2023-04-14T10:47:50.088Z,62.83
2023-04-14T10:50:22.594Z,62.52
2023-04-14T10:52:56.233Z,62.22
2023-04-14T10:55:25.908Z,62.13
2023-04-14T10:58:06.615Z,62.13
2023-04-14T11:00:38.357Z,62.20
2023-04-14T11:03:13.018Z,62.56
2023-04-14T11:05:48.089Z,62.18
2023-04-14T11:08:20.025Z,62.59
2023-04-14T11:10:51.490Z,62.60
2023-04-14T11:13:21.596Z,61.74
2023-04-14T11:15:57.283Z,61.25
2023-04-14T11:18:30.222Z,61.37
2023-04-14T11:21:08.092Z,61.32
2023-04-14T11:23:41.394Z,61.12
2023-04-14T11:26:14.342Z,61.32
2023-04-14T11:28:47.186Z,60.76
2023-04-14T11:31:22.520Z,60.65
2023-04-14T11:33:52.943Z,60.42
2023-04-14T11:36:21.517Z,60.98
2023-04-14T11:38:53.380Z,61.31
2023-04-14T11:41:25.879Z,61.37
2023-04-14T11:43:57.820Z,60.81
2023-04-14T11:46:27.478Z,60.38
2023-04-14T11:49:00.898Z,60.21
2023-04-14T11:51:33.853Z,60.38
2023-04-14T11:54:04.161Z,60.32
2023-04-14T11:56:32.690Z,60.42
2023-04-14T11:59:05.310Z,60.51
2023-04-14T12:01:34.583Z,60.83
2023-04-14T12:04:04.675Z,60.91
2023-04-14T12:06:40.920Z,60.82
2023-04-14T12:09:11.837Z,60.37
2023-04-14T12:11:40.740Z,61.01
2023-04-14T12:14:09.393Z,61.51
2023-04-14T12:16:38.347Z,62.55
2023-04-14T12:19:07.852Z,62.29
2023-04-14T12:21:36.769Z,62.34
2023-04-14T12:24:05.592Z,62.46
2023-04-14T12:26:36.523Z,62.82
2023-04-14T12:29:04.857Z,62.57
2023-04-14T12:31:33.335Z,62.59
2023-04-14T12:34:04.039Z,62.56
2023-04-14T12:36:48.794Z,62.26
2023-04-14T12:39:22.259Z,62.89
2023-04-14T12:41:51.591Z,63.38
2023-04-14T12:44:24.676Z,63.15
2023-04-14T12:46:54.026Z,63.86
2023-04-14T12:49:36.825Z,64.14
2023-04-14T12:52:08.360Z,63.85
2023-04-14T12:54:52.400Z,64.57
2023-04-14T12:57:22.076Z,64.00
2023-04-14T12:59:50.904Z,63.28
2023-04-14T13:02:19.854Z,62.97
2023-04-14T13:04:49.540Z,62.29
2023-04-14T13:07:20.357Z,62.40
2023-04-14T13:09:50.774Z,62.79
2023-04-14T13:12:19.625Z,62.60
2023-04-14T13:14:48.037Z,62.68
2023-04-14T13:17:16.809Z,63.87
2023-04-14T13:19:46.315Z,64.59
2023-04-14T13:22:16.745Z,65.36
2023-04-14T13:24:45.387Z,66.25
2023-04-14T13:27:13.587Z,67.32
2023-04-14T13:29:46.684Z,68.31
2023-04-14T13:32:15.542Z,69.13
2023-04-14T13:34:44.017Z,69.22
2023-04-14T13:37:12.745Z,70.29
2023-04-14T13:39:42.009Z,71.60
2023-04-14T13:42:10.566Z,72.52
2023-04-14T13:44:42.371Z,73.57
2023-04-14T13:47:11.164Z,73.97
2023-04-14T13:49:39.942Z,74.81
2023-04-14T13:52:08.596Z,75.57
2023-04-14T13:54:37.015Z,75.92
2023-04-14T13:57:05.488Z,75.66
2023-04-14T13:59:33.803Z,75.64
2023-04-14T14:02:02.324Z,75.24
2023-04-14T14:04:36.295Z,74.54
2023-04-14T14:07:04.798Z,74.97
2023-04-14T14:09:33.598Z,75.50
2023-04-14T14:12:02.742Z,74.89
2023-04-14T14:14:31.770Z,75.29
2023-04-14T14:17:00.350Z,75.71
2023-04-14T14:19:29.979Z,75.51
2023-04-14T14:21:58.400Z,75.80
2023-04-14T14:24:27.234Z,75.70
2023-04-14T14:26:56.937Z,75.52
2023-04-14T14:29:25.203Z,76.11
2023-04-14T14:31:53.369Z,76.13
2023-04-14T14:34:21.548Z,75.63
2023-04-14T14:37:00.846Z,74.67
2023-04-14T14:39:33.593Z,74.59
2023-04-14T14:42:02.255Z,74.50
2023-04-14T14:44:31.605Z,74.34
2023-04-14T14:47:03.538Z,74.80
2023-04-14T14:49:33.834Z,75.23
2023-04-14T14:52:04.326Z,75.25
2023-04-14T14:54:34.036Z,75.43
2023-04-14T14:57:02.871Z,74.82
2023-04-14T14:59:31.132Z,74.41
2023-04-14T15:01:59.988Z,74.08
2023-04-14T15:04:28.636Z,74.42
2023-04-14T15:06:57.092Z,74.36
2023-04-14T15:09:25.314Z,75.96
2023-04-14T15:11:54.079Z,76.73
2023-04-14T15:14:22.829Z,76.85
2023-04-14T15:16:51.068Z,76.64
2023-04-14T15:19:20.900Z,76.59
2023-04-14T15:21:49.276Z,76.47
2023-04-14T15:24:17.754Z,76.40
2023-04-14T15:26:47.440Z,76.42
2023-04-14T15:29:19.598Z,76.68
2023-04-14T15:31:48.336Z,77.00
2023-04-14T15:34:17.069Z,76.93
2023-04-14T15:36:45.407Z,76.78
2023-04-14T15:39:14.689Z,76.76
2023-04-14T15:41:44.608Z,76.96
2023-04-14T15:44:12.736Z,76.37
2023-04-14T15:46:41.308Z,76.74
2023-04-14T15:49:11.590Z,77.03
2023-04-14T15:51:41.150Z,77.27
2023-04-14T15:54:09.427Z,77.05
2023-04-14T15:56:37.742Z,77.41
2023-04-14T15:59:06.981Z,77.53
2023-04-14T16:01:35.241Z,77.56
2023-04-14T16:04:04.896Z,77.11
2023-04-14T16:06:36.513Z,76.48
2023-04-14T16:09:05.086Z,76.38
2023-04-14T16:11:33.831Z,76.19
2023-04-14T16:14:03.263Z,77.13
2023-04-14T16:16:32.793Z,77.97
2023-04-14T16:19:01.225Z,78.88
2023-04-14T16:21:29.706Z,79.05
2023-04-14T16:23:58.078Z,79.21
2023-04-14T16:26:26.420Z,79.21
2023-04-14T16:29:02.796Z,79.99
2023-04-14T16:31:31.783Z,80.59
2023-04-14T16:34:00.651Z,81.05
2023-04-14T16:36:29.639Z,81.12
2023-04-14T16:38:58.728Z,81.31
2023-04-14T16:41:27.704Z,81.76
2023-04-14T16:43:55.945Z,82.20
2023-04-14T16:46:25.181Z,82.07
2023-04-14T16:48:54.533Z,82.25
2023-04-14T16:51:28.244Z,81.86
2023-04-14T16:53:56.769Z,81.47
2023-04-14T16:56:25.045Z,82.16
2023-04-14T16:58:53.224Z,82.45
2023-04-14T17:01:21.581Z,82.73
2023-04-14T17:03:50.709Z,83.29
2023-04-14T17:06:19.330Z,83.17
2023-04-14T17:08:48.509Z,83.62
2023-04-14T17:11:16.702Z,84.56
2023-04-14T17:13:45.007Z,85.18
2023-04-14T17:16:20.232Z,84.69
2023-04-14T17:18:52.002Z,85.26
2023-04-14T17:21:20.178Z,85.80
2023-04-14T17:23:55.612Z,85.69
2023-04-14T17:26:24.845Z,85.92
2023-04-14T17:28:53.009Z,86.60
2023-04-14T17:31:21.337Z,86.55
2023-04-14T17:33:50.079Z,86.54
2023-04-14T17:36:24.298Z,86.32
2023-04-14T17:38:54.792Z,86.23
2023-04-14T17:41:24.607Z,85.80
2023-04-14T17:43:52.908Z,85.53
2023-04-14T17:46:28.123Z,86.12
2023-04-14T17:48:57.179Z,86.19
2023-04-14T17:51:25.344Z,85.67
2023-04-14T17:53:56.025Z,85.53
2023-04-14T17:56:25.893Z,85.08
2023-04-14T17:58:54.065Z,84.69
2023-04-14T18:01:24.132Z,84.82
2023-04-14T18:03:52.732Z,85.20
2023-04-14T18:06:21.225Z,86.39
2023-04-14T18:08:51.822Z,87.41
2023-04-14T18:11:24.894Z,87.82
2023-04-14T18:13:53.937Z,87.89
2023-04-14T18:16:29.357Z,87.56
2023-04-14T18:18:59.099Z,87.45
2023-04-14T18:21:29.057Z,86.92
2023-04-14T18:26:29.819Z,87.46
2023-04-14T18:28:58.113Z,87.12
2023-04-14T18:31:27.224Z,87.30
2023-04-14T18:34:16.933Z,87.70
2023-04-14T18:36:45.496Z,88.83
2023-04-14T18:39:16.416Z,89.70
2023-04-14T18:41:46.314Z,90.50
2023-04-14T18:44:17.239Z,91.01
2023-04-14T18:46:45.448Z,91.14
2023-04-14T18:49:13.841Z,91.41
2023-04-14T18:51:42.418Z,91.49
2023-04-14T18:54:10.672Z,91.58
2023-04-14T18:56:42.645Z,91.67
2023-04-14T18:59:11.479Z,91.50
2023-04-14T19:01:43.002Z,90.85
2023-04-14T19:04:11.346Z,90.51
2023-04-14T19:06:40.607Z,90.67
2023-04-14T19:09:08.984Z,90.24
2023-04-14T19:11:39.051Z,89.63
2023-04-14T19:14:08.909Z,89.23
2023-04-14T19:16:37.107Z,88.63
2023-04-14T19:19:06.460Z,88.43
2023-04-14T19:21:34.704Z,87.77
2023-04-14T19:24:02.942Z,87.32
2023-04-14T19:26:31.149Z,87.71
2023-04-14T19:29:01.166Z,87.47
2023-04-14T19:31:31.439Z,87.27
2023-04-14T19:33:59.602Z,87.02
2023-04-14T19:36:29.368Z,87.01
2023-04-14T19:38:57.825Z,87.19
2023-04-14T19:41:30.161Z,87.82
2023-04-14T19:43:58.881Z,88.02
2023-04-14T19:46:27.457Z,87.97
2023-04-14T19:48:59.228Z,87.28
2023-04-14T19:51:28.939Z,86.69
2023-04-14T19:53:58.816Z,87.50
2023-04-14T19:56:28.449Z,87.39
2023-04-14T19:58:58.511Z,87.71
2023-04-14T20:01:27.353Z,87.61
2023-04-14T20:04:11.050Z,87.84
2023-04-14T20:06:41.589Z,88.16
2023-04-14T20:09:10.253Z,87.79
2023-04-14T20:11:38.483Z,87.14
2023-04-14T20:14:06.723Z,86.89
2023-04-14T20:16:40.896Z,86.99
2023-04-14T20:19:10.084Z,87.58
2023-04-14T20:21:38.739Z,88.64
2023-04-14T20:24:06.877Z,89.30
2023-04-14T20:26:35.203Z,90.54
2023-04-14T20:29:05.430Z,91.87
2023-04-14T20:31:33.711Z,93.41
2023-04-14T20:34:04.273Z,94.20
2023-04-14T20:36:37.959Z,94.97
2023-04-14T20:39:06.274Z,95.49
2023-04-14T20:41:37.727Z,96.08
2023-04-14T20:44:06.465Z,96.65
2023-04-14T20:46:35.313Z,97.19
2023-04-14T20:49:04.404Z,97.57
2023-04-14T20:51:34.067Z,97.56
2023-04-14T20:54:02.792Z,98.87
2023-04-14T20:56:35.104Z,99.36
2023-04-14T20:59:03.927Z,99.25
2023-04-14T21:01:32.682Z,99.42
2023-04-14T21:04:01.218Z,100.00
2023-04-14T21:06:32.420Z,100.00
2023-04-14T21:09:02.012Z,100.00
2023-04-14T21:11:30.650Z,100.00
2023-04-14T21:15:42.137Z,100.00
2023-04-14T21:16:47.670Z,100.00
2023-04-14T21:19:16.396Z,100.00
2023-04-14T21:21:46.212Z,100.00
2023-04-14T21:24:14.799Z,100.00
2023-04-14T21:26:42.910Z,100.00
2023-04-14T21:29:14.649Z,100.00
2023-04-14T21:31:45.254Z,100.00
2023-04-14T21:34:13.717Z,100.00
2023-04-14T21:36:41.915Z,100.00
2023-04-14T21:39:10.126Z,100.00
2023-04-14T21:41:38.234Z,100.00
2023-04-14T21:44:07.652Z,100.00
2023-04-14T21:46:36.774Z,100.00
2023-04-14T21:49:05.376Z,100.00
2023-04-14T21:51:33.671Z,100.00
2023-04-14T21:54:02.665Z,100.00
2023-04-14T21:56:31.648Z,100.00
2023-04-14T21:59:00.233Z,100.00
2023-04-14T22:01:30.087Z,100.00
2023-04-14T22:04:00.556Z,100.00
2023-04-14T22:06:29.600Z,100.00
2023-04-14T22:09:01.927Z,100.00
2023-04-14T22:11:32.258Z,100.00
2023-04-14T22:14:02.948Z,100.00
2023-04-14T22:16:38.027Z,100.00
2023-04-14T22:19:09.211Z,100.00
2023-04-14T22:21:37.867Z,100.00
2023-04-14T22:24:06.425Z,100.00
2023-04-14T22:26:35.896Z,100.00
2023-04-14T22:29:04.474Z,100.00
2023-04-14T22:31:33.115Z,100.00
2023-04-14T22:34:02.749Z,100.00
2023-04-14T22:36:30.981Z,100.00
2023-04-14T22:38:59.302Z,100.00
2023-04-14T22:41:27.965Z,100.00
2023-04-14T22:43:56.889Z,100.00
2023-04-14T22:46:27.976Z,100.00
2023-04-14T22:48:57.033Z,100.00
2023-04-14T22:51:25.227Z,100.00
2023-04-14T22:53:54.206Z,100.00
2023-04-14T22:56:24.768Z,100.00
2023-04-14T22:58:53.015Z,100.00
2023-04-14T23:01:24.558Z,100.00
2023-04-14T23:03:53.697Z,100.00
2023-04-14T23:06:23.021Z,100.00
2023-04-14T23:08:51.295Z,100.00
2023-04-14T23:11:21.061Z,100.00
2023-04-14T23:13:50.039Z,100.00
2023-04-14T23:16:22.454Z,100.00
2023-04-14T23:18:53.018Z,100.00
2023-04-14T23:21:25.069Z,100.00
2023-04-14T23:23:53.285Z,100.00
2023-04-14T23:26:27.563Z,100.00
2023-04-14T23:28:58.031Z,100.00
2023-04-14T23:31:28.361Z,100.00
2023-04-14T23:33:59.442Z,100.00
2023-04-14T23:36:28.144Z,100.00
2023-04-14T23:38:56.615Z,100.00
2023-04-14T23:41:28.254Z,100.00
2023-04-14T23:43:57.108Z,100.00
2023-04-14T23:46:25.381Z,100.00
2023-04-14T23:48:54.400Z,100.00
2023-04-14T23:51:24.901Z,100.00
2023-04-14T23:53:53.388Z,100.00
2023-04-14T23:56:24.308Z,100.00
2023-04-14T23:58:53.247Z,100.00
